createdAt,value
2018-01-29T00:00:49.929Z,92.60
2018-01-29T00:03:18.178Z,92.60
2018-01-29T00:05:45.632Z,92.60
2018-01-29T00:08:13.102Z,92.50
2018-01-29T00:10:40.582Z,92.60
2018-01-29T00:13:08.845Z,92.50
2018-01-29T00:15:36.306Z,92.50
2018-01-29T00:18:04.569Z,85.50
2018-01-29T00:20:32.022Z,85.60
2018-01-29T00:22:59.522Z,85.50
2018-01-29T00:25:27.027Z,85.60
2018-01-29T00:27:54.470Z,85.60
2018-01-29T00:30:21.960Z,85.70
2018-01-29T00:32:49.430Z,85.50
2018-01-29T00:35:16.942Z,92.60
2018-01-29T00:37:44.425Z,92.70
2018-01-29T00:40:11.903Z,92.70
2018-01-29T00:42:39.399Z,92.90
2018-01-29T00:45:06.849Z,93.00
2018-01-29T00:47:34.358Z,92.90
2018-01-29T00:50:01.837Z,92.90
2018-01-29T00:52:29.331Z,86.00
2018-01-29T00:54:56.786Z,85.90
2018-01-29T00:57:24.247Z,92.80
2018-01-29T00:59:51.762Z,92.90
2018-01-29T01:02:19.237Z,92.90
2018-01-29T01:04:47.486Z,86.20
2018-01-29T01:07:14.950Z,86.20
2018-01-29T01:09:42.454Z,86.20
2018-01-29T01:12:10.678Z,86.10
2018-01-29T01:14:38.178Z,86.10
2018-01-29T01:17:06.421Z,86.20
2018-01-29T01:19:33.907Z,86.20
2018-01-29T01:22:02.145Z,86.00
2018-01-29T01:24:29.618Z,86.10
2018-01-29T01:26:57.114Z,86.00
2018-01-29T01:29:24.579Z,92.90
2018-01-29T01:31:52.092Z,92.90
2018-01-29T01:34:19.590Z,92.90
2018-01-29T01:36:47.821Z,92.90
2018-01-29T01:39:15.323Z,92.90
2018-01-29T01:41:43.558Z,93.00
2018-01-29T01:44:11.033Z,93.00
2018-01-29T01:46:38.506Z,93.00
2018-01-29T01:49:06.801Z,93.00
2018-01-29T01:51:35.028Z,93.10
2018-01-29T01:54:02.483Z,93.10
2018-01-29T01:56:29.982Z,86.30
2018-01-29T01:58:58.205Z,86.40
2018-01-29T02:01:25.707Z,86.40
2018-01-29T02:03:53.946Z,86.50
2018-01-29T02:06:21.434Z,86.50
2018-01-29T02:08:49.699Z,86.60
2018-01-29T02:11:17.153Z,86.60
2018-01-29T02:13:44.633Z,86.70
2018-01-29T02:16:12.873Z,86.70
2018-01-29T02:18:40.368Z,86.70
2018-01-29T02:21:07.843Z,86.60
2018-01-29T02:23:35.353Z,86.70
2018-01-29T02:26:02.811Z,86.60
2018-01-29T02:28:30.261Z,86.60
2018-01-29T02:30:57.786Z,86.60
2018-01-29T02:33:25.244Z,86.60
2018-01-29T02:35:52.745Z,86.70
2018-01-29T02:38:20.206Z,86.80
2018-01-29T02:40:47.678Z,93.20
2018-01-29T02:43:15.158Z,93.20
2018-01-29T02:45:43.419Z,93.20
2018-01-29T02:48:10.875Z,93.30
2018-01-29T02:50:38.381Z,93.30
2018-01-29T02:53:05.838Z,93.30
2018-01-29T02:55:33.300Z,93.30
2018-01-29T02:58:00.794Z,93.20
2018-01-29T03:00:28.241Z,93.30
2018-01-29T03:02:55.734Z,93.30
2018-01-29T03:05:24.374Z,93.20
2018-01-29T03:07:51.850Z,93.30
2018-01-29T03:10:19.314Z,93.30
2018-01-29T03:12:46.822Z,93.30
2018-01-29T03:15:14.308Z,93.30
2018-01-29T03:17:41.781Z,93.30
2018-01-29T03:20:09.279Z,93.30
2018-01-29T03:22:37.509Z,93.30
2018-01-29T03:25:05.041Z,93.30
2018-01-29T03:27:32.506Z,93.30
2018-01-29T03:29:59.979Z,93.30
2018-01-29T03:32:27.470Z,93.30
2018-01-29T03:34:54.953Z,93.30
2018-01-29T03:37:23.206Z,93.20
2018-01-29T03:39:50.654Z,93.20
2018-01-29T03:42:18.121Z,93.20
2018-01-29T03:44:45.622Z,93.30
2018-01-29T03:47:13.098Z,93.30
2018-01-29T03:49:40.589Z,93.30
2018-01-29T03:52:08.050Z,93.20
2018-01-29T03:54:35.541Z,93.30
2018-01-29T03:57:03.002Z,93.20
2018-01-29T03:59:30.502Z,93.20
2018-01-29T04:01:57.975Z,93.20
2018-01-29T04:04:25.451Z,93.30
2018-01-29T04:06:52.938Z,93.30
2018-01-29T04:09:20.406Z,93.30
2018-01-29T04:11:47.898Z,93.30
2018-01-29T04:14:15.382Z,93.30
2018-01-29T04:16:42.846Z,93.30
2018-01-29T04:19:10.350Z,93.30
2018-01-29T04:21:37.807Z,93.30
2018-01-29T04:24:05.305Z,93.30
2018-01-29T04:26:32.754Z,93.30
2018-01-29T04:29:00.266Z,93.30
2018-01-29T04:31:27.737Z,93.30
2018-01-29T04:33:55.239Z,93.30
2018-01-29T04:36:22.714Z,93.20
2018-01-29T04:38:50.187Z,93.20
2018-01-29T04:41:18.468Z,93.20
2018-01-29T04:43:45.930Z,93.20
2018-01-29T04:46:16.122Z,93.30
2018-01-29T04:48:43.590Z,93.30
2018-01-29T04:51:11.883Z,93.30
2018-01-29T04:53:40.138Z,93.30
2018-01-29T04:56:07.593Z,93.30
2018-01-29T04:58:35.088Z,93.30
2018-01-29T05:01:02.567Z,93.20
2018-01-29T05:03:30.071Z,93.30
2018-01-29T05:05:57.534Z,93.30
2018-01-29T05:08:25.757Z,93.30
2018-01-29T05:10:53.260Z,93.30
2018-01-29T05:13:20.750Z,93.30
2018-01-29T05:15:48.229Z,93.30
2018-01-29T05:18:15.711Z,93.40
2018-01-29T05:20:43.185Z,93.40
2018-01-29T05:23:10.654Z,93.40
2018-01-29T05:25:38.169Z,93.40
2018-01-29T05:28:05.638Z,93.40
2018-01-29T05:30:33.140Z,93.40
2018-01-29T05:33:00.590Z,93.40
2018-01-29T05:35:30.979Z,93.40
2018-01-29T05:38:02.031Z,93.40
2018-01-29T05:40:29.488Z,93.40
2018-01-29T05:42:56.958Z,93.50
2018-01-29T05:45:24.442Z,93.50
2018-01-29T05:47:52.706Z,93.50
2018-01-29T05:50:21.720Z,93.50
2018-01-29T05:52:49.979Z,93.50
2018-01-29T05:55:17.431Z,93.50
2018-01-29T05:57:44.925Z,93.50
2018-01-29T06:00:13.190Z,93.60
2018-01-29T06:02:41.443Z,93.50
2018-01-29T06:05:08.921Z,93.50
2018-01-29T06:07:37.149Z,93.60
2018-01-29T06:10:04.639Z,93.60
2018-01-29T06:12:32.882Z,93.60
2018-01-29T06:15:00.339Z,93.60
2018-01-29T06:17:27.811Z,93.60
2018-01-29T06:19:55.271Z,93.60
2018-01-29T06:22:22.765Z,93.60
2018-01-29T06:24:51.003Z,93.60
2018-01-29T06:27:18.538Z,93.60
2018-01-29T06:29:46.002Z,93.60
2018-01-29T06:32:13.503Z,93.60
2018-01-29T06:34:40.958Z,93.70
2018-01-29T06:37:08.419Z,93.70
2018-01-29T06:39:35.919Z,93.70
2018-01-29T06:42:03.390Z,93.70
2018-01-29T06:44:30.885Z,93.70
2018-01-29T06:46:58.411Z,93.70
2018-01-29T06:49:25.918Z,93.70
2018-01-29T06:51:53.382Z,93.70
2018-01-29T06:54:20.846Z,93.80
2018-01-29T06:56:49.114Z,93.80
2018-01-29T06:59:16.583Z,93.80
2018-01-29T07:01:44.869Z,93.80
2018-01-29T07:04:13.106Z,93.80
2018-01-29T07:06:40.603Z,93.80
2018-01-29T07:09:08.851Z,93.80
2018-01-29T07:11:36.315Z,93.80
2018-01-29T07:14:03.845Z,93.80
2018-01-29T07:16:31.309Z,93.80
2018-01-29T07:18:58.791Z,93.80
2018-01-29T07:21:26.254Z,93.70
2018-01-29T07:23:54.487Z,93.70
2018-01-29T07:26:21.995Z,93.70
2018-01-29T07:28:50.295Z,93.60
2018-01-29T07:31:17.769Z,93.70
2018-01-29T07:33:45.247Z,93.70
2018-01-29T07:36:12.746Z,93.60
2018-01-29T07:38:40.989Z,93.50
2018-01-29T07:41:08.452Z,93.50
2018-01-29T07:43:35.953Z,93.50
2018-01-29T07:46:04.198Z,93.60
2018-01-29T07:48:31.698Z,93.60
2018-01-29T07:50:59.167Z,93.50
2018-01-29T07:53:26.699Z,93.60
2018-01-29T07:55:54.918Z,93.60
2018-01-29T07:58:22.395Z,93.60
2018-01-29T08:00:49.906Z,93.60
2018-01-29T08:03:17.391Z,93.60
2018-01-29T08:05:44.910Z,93.70
2018-01-29T08:08:13.167Z,93.70
2018-01-29T08:10:40.699Z,93.70
2018-01-29T08:13:08.219Z,93.70
2018-01-29T08:15:36.556Z,93.70
2018-01-29T08:18:04.035Z,93.80
2018-01-29T08:20:32.311Z,93.80
2018-01-29T08:22:59.781Z,93.80
2018-01-29T08:25:28.044Z,93.80
2018-01-29T08:27:56.285Z,93.80
2018-01-29T08:30:23.767Z,93.80
2018-01-29T08:32:51.266Z,93.80
2018-01-29T08:35:18.731Z,93.80
2018-01-29T08:37:46.260Z,93.80
2018-01-29T08:40:14.492Z,93.80
2018-01-29T08:42:42.022Z,93.80
2018-01-29T08:45:09.475Z,93.80
2018-01-29T08:47:36.955Z,93.70
2018-01-29T08:50:04.468Z,93.70
2018-01-29T08:52:31.950Z,93.70
2018-01-29T08:54:59.476Z,93.70
2018-01-29T08:57:26.924Z,93.70
2018-01-29T08:59:54.440Z,93.70
2018-01-29T09:02:21.928Z,93.70
2018-01-29T09:04:49.400Z,93.70
2018-01-29T09:07:16.893Z,93.70
2018-01-29T09:09:45.162Z,93.70
2018-01-29T09:12:13.459Z,93.70
2018-01-29T09:14:40.952Z,93.70
2018-01-29T09:17:08.475Z,93.70
2018-01-29T09:19:35.950Z,93.70
2018-01-29T09:22:03.452Z,93.60
2018-01-29T09:24:30.912Z,93.60
2018-01-29T09:26:58.428Z,93.60
2018-01-29T09:29:25.915Z,93.60
2018-01-29T09:31:53.425Z,93.60
2018-01-29T09:34:21.705Z,93.50
2018-01-29T09:36:49.211Z,93.50
2018-01-29T09:39:16.734Z,93.50
2018-01-29T09:41:44.246Z,93.50
2018-01-29T09:44:11.823Z,93.50
2018-01-29T09:46:40.904Z,93.40
2018-01-29T09:49:08.380Z,93.40
2018-01-29T09:51:36.628Z,93.40
2018-01-29T09:54:04.132Z,93.40
2018-01-29T09:56:31.618Z,93.40
2018-01-29T09:58:59.067Z,93.40
2018-01-29T10:01:26.576Z,93.30
2018-01-29T10:03:54.070Z,93.20
2018-01-29T10:06:21.570Z,87.00
2018-01-29T10:08:49.061Z,86.90
2018-01-29T10:11:17.314Z,86.40
2018-01-29T10:13:44.849Z,86.40
2018-01-29T10:16:12.353Z,86.20
2018-01-29T10:18:39.822Z,86.50
2018-01-29T10:21:08.050Z,86.20
2018-01-29T10:23:35.527Z,86.20
2018-01-29T10:26:02.979Z,85.90
2018-01-29T10:28:30.504Z,86.00
2018-01-29T10:30:57.997Z,86.00
2018-01-29T10:33:25.457Z,85.90
2018-01-29T10:35:52.971Z,85.90
2018-01-29T10:38:20.419Z,85.70
2018-01-29T10:40:47.939Z,85.60
2018-01-29T10:43:15.460Z,85.30
2018-01-29T10:45:42.927Z,85.00
2018-01-29T10:48:10.453Z,85.10
2018-01-29T10:50:37.926Z,84.90
2018-01-29T10:53:05.457Z,85.10
2018-01-29T10:55:33.680Z,84.70
2018-01-29T10:58:01.174Z,84.70
2018-01-29T11:00:28.681Z,84.70
2018-01-29T11:02:56.155Z,84.40
2018-01-29T11:05:23.658Z,83.90
2018-01-29T11:07:51.174Z,84.40
2018-01-29T11:10:18.682Z,84.40
2018-01-29T11:12:46.930Z,83.90
2018-01-29T11:15:14.410Z,83.90
2018-01-29T11:17:41.886Z,84.00
2018-01-29T11:20:09.391Z,84.10
2018-01-29T11:22:36.903Z,83.40
2018-01-29T11:25:05.137Z,83.80
2018-01-29T11:27:32.639Z,83.80
2018-01-29T11:30:00.906Z,83.40
2018-01-29T11:32:29.142Z,83.10
2018-01-29T11:34:56.635Z,83.10
2018-01-29T11:37:24.124Z,82.70
2018-01-29T11:39:51.631Z,82.90
2018-01-29T11:42:19.088Z,82.50
2018-01-29T11:44:46.590Z,82.30
2018-01-29T11:47:14.082Z,82.20
2018-01-29T11:49:41.600Z,82.50
2018-01-29T11:52:09.863Z,82.50
2018-01-29T11:54:38.135Z,81.40
2018-01-29T11:57:05.621Z,81.40
2018-01-29T11:59:33.112Z,82.10
2018-01-29T12:02:00.596Z,81.80
2018-01-29T12:04:28.112Z,81.70
2018-01-29T12:06:55.630Z,80.70
2018-01-29T12:09:23.909Z,81.10
2018-01-29T12:11:52.180Z,81.10
2018-01-29T12:14:19.669Z,81.00
2018-01-29T12:16:47.170Z,81.40
2018-01-29T12:19:15.772Z,80.40
2018-01-29T12:21:42.198Z,81.00
2018-01-29T12:24:09.695Z,80.50
2018-01-29T12:26:37.958Z,80.40
2018-01-29T12:29:05.461Z,80.40
2018-01-29T12:31:32.993Z,80.90
2018-01-29T12:34:00.492Z,79.50
2018-01-29T12:36:27.990Z,78.90
2018-01-29T12:38:56.257Z,79.60
2018-01-29T12:41:23.746Z,79.60
2018-01-29T12:43:51.250Z,78.20
2018-01-29T12:46:18.734Z,77.90
2018-01-29T12:48:46.240Z,76.80
2018-01-29T12:51:13.717Z,76.50
2018-01-29T12:53:41.200Z,76.50
2018-01-29T12:56:08.694Z,76.80
2018-01-29T12:58:36.178Z,77.50
2018-01-29T13:01:03.700Z,77.70
2018-01-29T13:03:31.930Z,77.80
2018-01-29T13:05:59.446Z,77.80
2018-01-29T13:08:27.682Z,77.60
2018-01-29T13:10:55.172Z,77.50
2018-01-29T13:13:23.419Z,78.30
2018-01-29T13:15:50.905Z,78.30
2018-01-29T13:18:19.186Z,76.10
2018-01-29T13:20:47.431Z,77.10
2018-01-29T13:23:14.946Z,77.10
2018-01-29T13:25:42.430Z,78.00
2018-01-29T13:28:09.911Z,77.00
2018-01-29T13:30:37.405Z,77.90
2018-01-29T13:33:05.648Z,75.80
2018-01-29T13:35:33.156Z,75.80
2018-01-29T13:38:00.654Z,74.90
2018-01-29T13:40:28.163Z,75.00
2018-01-29T13:42:55.663Z,74.60
2018-01-29T13:45:23.129Z,74.60
2018-01-29T13:47:50.816Z,75.50
2018-01-29T13:50:18.273Z,74.70
2018-01-29T13:52:46.570Z,75.60
2018-01-29T13:55:14.888Z,75.00
2018-01-29T13:57:42.425Z,75.00
2018-01-29T14:00:09.923Z,77.10
2018-01-29T14:02:37.453Z,78.10
2018-01-29T14:05:04.943Z,77.80
2018-01-29T14:07:32.450Z,78.50
2018-01-29T14:10:00.695Z,78.70
2018-01-29T14:12:28.180Z,78.70
2018-01-29T14:14:56.443Z,79.50
2018-01-29T14:17:24.687Z,79.70
2018-01-29T14:19:52.196Z,79.70
2018-01-29T14:22:20.457Z,80.70
2018-01-29T14:24:47.947Z,80.70
2018-01-29T14:27:15.430Z,80.30
2018-01-29T14:29:42.902Z,79.80
2018-01-29T14:32:10.430Z,79.60
2018-01-29T14:34:37.910Z,79.80
2018-01-29T14:37:05.422Z,79.20
2018-01-29T14:39:33.702Z,79.70
2018-01-29T14:42:01.986Z,79.50
2018-01-29T14:44:30.229Z,78.60
2018-01-29T14:46:57.694Z,78.60
2018-01-29T14:49:25.965Z,78.90
2018-01-29T14:51:53.442Z,78.80
2018-01-29T14:54:21.727Z,79.50
2018-01-29T14:56:49.964Z,80.30
2018-01-29T14:59:17.474Z,80.20
2018-01-29T15:01:44.987Z,79.70
2018-01-29T15:04:12.486Z,79.30
2018-01-29T15:06:40.758Z,79.10
2018-01-29T15:09:08.986Z,79.10
2018-01-29T15:11:36.470Z,79.10
2018-01-29T15:14:03.969Z,78.80
2018-01-29T15:16:31.453Z,79.20
2018-01-29T15:18:58.970Z,78.20
2018-01-29T15:21:27.221Z,78.60
2018-01-29T15:23:54.720Z,78.60
2018-01-29T15:26:22.206Z,77.10
2018-01-29T15:28:49.735Z,77.50
2018-01-29T15:31:17.235Z,78.30
2018-01-29T15:33:44.757Z,78.30
2018-01-29T15:36:12.271Z,78.60
2018-01-29T15:38:39.748Z,77.40
2018-01-29T15:41:08.027Z,77.20
2018-01-29T15:43:36.260Z,77.10
2018-01-29T15:46:03.757Z,77.10
2018-01-29T15:48:32.009Z,77.80
2018-01-29T15:50:59.515Z,77.80
2018-01-29T15:53:27.013Z,77.80
2018-01-29T15:55:54.491Z,78.00
2018-01-29T15:58:22.040Z,78.90
2018-01-29T16:00:49.560Z,77.80
2018-01-29T16:03:17.086Z,78.50
2018-01-29T16:05:44.582Z,81.60
2018-01-29T16:08:12.105Z,78.90
2018-01-29T16:10:40.388Z,79.40
2018-01-29T16:13:08.669Z,79.80
2018-01-29T16:15:36.139Z,79.80
2018-01-29T16:18:03.647Z,79.20
2018-01-29T16:20:31.131Z,79.60
2018-01-29T16:22:59.402Z,80.50
2018-01-29T16:25:26.905Z,80.50
2018-01-29T16:27:54.405Z,80.60
2018-01-29T16:30:21.883Z,79.60
2018-01-29T16:32:51.027Z,79.90
2018-01-29T16:35:18.499Z,79.90
2018-01-29T16:37:46.012Z,79.40
2018-01-29T16:40:14.229Z,79.40
2018-01-29T16:42:41.705Z,79.50
2018-01-29T16:45:09.220Z,79.40
2018-01-29T16:47:37.469Z,79.10
2018-01-29T16:50:05.753Z,79.10
2018-01-29T16:52:33.234Z,79.20
2018-01-29T16:55:00.753Z,79.70
2018-01-29T16:57:28.211Z,79.20
2018-01-29T16:59:55.704Z,79.70
2018-01-29T17:02:23.196Z,79.70
2018-01-29T17:04:50.693Z,79.80
2018-01-29T17:07:19.698Z,79.60
2018-01-29T17:09:47.207Z,79.60
2018-01-29T17:12:14.724Z,80.00
2018-01-29T17:14:42.992Z,79.60
2018-01-29T17:17:10.493Z,79.60
2018-01-29T17:19:37.998Z,79.70
2018-01-29T17:22:05.477Z,79.70
2018-01-29T17:24:33.740Z,79.40
2018-01-29T17:27:01.198Z,79.40
2018-01-29T17:29:28.676Z,80.20
2018-01-29T17:31:56.933Z,79.30
2018-01-29T17:34:25.214Z,79.20
2018-01-29T17:36:52.694Z,79.20
2018-01-29T17:39:20.980Z,79.90
2018-01-29T17:41:48.481Z,79.90
2018-01-29T17:44:16.007Z,79.70
2018-01-29T17:46:43.505Z,79.20
2018-01-29T17:49:10.993Z,79.70
2018-01-29T17:51:39.242Z,78.80
2018-01-29T17:54:06.746Z,78.80
2018-01-29T17:56:35.022Z,78.60
2018-01-29T17:59:03.278Z,78.70
2018-01-29T18:01:31.550Z,79.00
2018-01-29T18:03:59.045Z,89.20
2018-01-29T18:06:26.528Z,79.20
2018-01-29T18:08:54.020Z,78.80
2018-01-29T18:11:21.517Z,78.60
2018-01-29T18:13:48.977Z,78.60
2018-01-29T18:16:16.491Z,78.90
2018-01-29T18:18:43.984Z,78.80
2018-01-29T18:21:11.487Z,78.60
2018-01-29T18:23:38.982Z,78.90
2018-01-29T18:26:06.499Z,78.40
2018-01-29T18:28:33.990Z,78.70
2018-01-29T18:31:01.470Z,78.10
2018-01-29T18:33:29.718Z,78.20
2018-01-29T18:35:57.959Z,78.10
2018-01-29T18:38:25.439Z,78.10
2018-01-29T18:40:52.929Z,78.40
2018-01-29T18:43:21.187Z,78.40
2018-01-29T18:45:48.666Z,78.40
2018-01-29T18:48:16.939Z,78.70
2018-01-29T18:50:45.191Z,79.30
2018-01-29T18:53:12.751Z,79.30
2018-01-29T18:55:40.170Z,79.60
2018-01-29T18:58:07.644Z,79.30
2018-01-29T19:00:35.141Z,79.50
2018-01-29T19:03:02.620Z,79.20
2018-01-29T19:05:30.873Z,79.90
2018-01-29T19:07:59.147Z,79.30
2018-01-29T19:10:26.638Z,79.30
2018-01-29T19:12:54.110Z,79.10
2018-01-29T19:15:21.618Z,79.30
2018-01-29T19:17:49.084Z,78.90
2018-01-29T19:20:16.563Z,78.90
2018-01-29T19:22:44.820Z,78.50
2018-01-29T19:25:12.284Z,78.50
2018-01-29T19:27:40.538Z,78.60
2018-01-29T19:30:08.007Z,78.50
2018-01-29T19:32:35.549Z,78.40
2018-01-29T19:35:02.987Z,78.60
2018-01-29T19:37:30.487Z,78.50
2018-01-29T19:39:57.960Z,78.40
2018-01-29T19:42:26.267Z,78.40
2018-01-29T19:44:53.734Z,78.40
2018-01-29T19:47:21.211Z,78.20
2018-01-29T19:49:48.780Z,78.40
2018-01-29T19:52:16.210Z,78.70
2018-01-29T19:54:43.718Z,77.90
2018-01-29T19:57:11.178Z,77.90
2018-01-29T19:59:38.666Z,77.80
2018-01-29T20:02:06.932Z,77.50
2018-01-29T20:04:35.172Z,78.00
2018-01-29T20:07:02.674Z,78.00
2018-01-29T20:09:30.183Z,77.10
2018-01-29T20:11:57.706Z,76.30
2018-01-29T20:14:25.180Z,76.90
2018-01-29T20:16:52.667Z,76.70
2018-01-29T20:19:20.937Z,76.90
2018-01-29T20:21:48.460Z,76.90
2018-01-29T20:24:15.919Z,78.20
2018-01-29T20:26:43.398Z,76.60
2018-01-29T20:29:10.891Z,76.30
2018-01-29T20:31:38.379Z,76.50
2018-01-29T20:34:05.879Z,76.50
2018-01-29T20:36:33.413Z,75.40
2018-01-29T20:39:00.951Z,75.80
2018-01-29T20:41:29.211Z,76.00
2018-01-29T20:43:57.467Z,75.80
2018-01-29T20:46:25.006Z,75.80
2018-01-29T20:48:52.479Z,76.00
2018-01-29T20:51:20.023Z,76.10
2018-01-29T20:53:47.476Z,76.30
2018-01-29T20:56:14.940Z,76.10
2018-01-29T20:58:42.458Z,75.70
2018-01-29T21:01:10.687Z,76.60
2018-01-29T21:03:38.224Z,76.60
2018-01-29T21:06:05.730Z,76.00
2018-01-29T21:08:33.234Z,75.80
2018-01-29T21:11:00.731Z,76.30
2018-01-29T21:13:28.229Z,75.40
2018-01-29T21:15:56.492Z,75.80
2018-01-29T21:18:24.726Z,76.30
2018-01-29T21:20:52.239Z,76.20
2018-01-29T21:23:20.489Z,77.50
2018-01-29T21:25:47.985Z,77.50
2018-01-29T21:28:15.481Z,77.50
2018-01-29T21:30:42.972Z,77.50
2018-01-29T21:33:10.471Z,77.30
2018-01-29T21:35:37.957Z,77.60
2018-01-29T21:38:05.457Z,76.60
2018-01-29T21:40:33.703Z,75.70
2018-01-29T21:43:01.181Z,75.80
2018-01-29T21:45:28.691Z,76.00
2018-01-29T21:47:56.230Z,76.30
2018-01-29T21:50:23.732Z,76.10
2018-01-29T21:52:51.231Z,76.70
2018-01-29T21:55:19.531Z,76.10
2018-01-29T21:57:47.009Z,76.10
2018-01-29T22:00:14.461Z,75.80
2018-01-29T22:02:41.971Z,75.90
2018-01-29T22:05:10.251Z,75.90
2018-01-29T22:07:37.730Z,75.90
2018-01-29T22:10:05.204Z,76.70
2018-01-29T22:12:32.690Z,76.70
2018-01-29T22:15:00.157Z,77.30
2018-01-29T22:17:27.641Z,78.50
2018-01-29T22:19:55.101Z,81.00
2018-01-29T22:22:23.374Z,82.20
2018-01-29T22:24:50.856Z,82.20
2018-01-29T22:27:19.079Z,83.40
2018-01-29T22:29:46.566Z,83.40
2018-01-29T22:32:14.013Z,84.10
2018-01-29T22:34:41.541Z,84.60
2018-01-29T22:37:09.009Z,85.30
2018-01-29T22:39:36.521Z,85.80
2018-01-29T22:42:04.743Z,86.80
2018-01-29T22:44:32.202Z,86.80
2018-01-29T22:46:59.683Z,87.20
2018-01-29T22:49:27.195Z,87.40
2018-01-29T22:51:55.440Z,87.90
2018-01-29T22:54:23.674Z,87.90
2018-01-29T22:56:51.178Z,87.90
2018-01-29T22:59:19.399Z,88.00
2018-01-29T23:01:46.863Z,93.70
2018-01-29T23:04:14.353Z,87.90
2018-01-29T23:06:41.827Z,87.80
2018-01-29T23:09:10.094Z,93.60
2018-01-29T23:11:38.318Z,93.70
2018-01-29T23:14:05.810Z,93.70
2018-01-29T23:16:33.301Z,93.60
2018-01-29T23:19:01.567Z,93.60
2018-01-29T23:21:29.790Z,93.50
2018-01-29T23:23:57.274Z,93.50
2018-01-29T23:26:24.751Z,93.50
2018-01-29T23:28:52.219Z,93.60
2018-01-29T23:31:19.691Z,93.50
2018-01-29T23:33:47.925Z,93.70
2018-01-29T23:36:15.414Z,93.70
2018-01-29T23:38:43.646Z,93.80
2018-01-29T23:41:11.133Z,93.80
2018-01-29T23:43:38.613Z,93.80
2018-01-29T23:46:06.862Z,93.80
2018-01-29T23:48:34.347Z,93.80
2018-01-29T23:51:02.601Z,93.80
2018-01-29T23:53:30.109Z,93.80
2018-01-29T23:55:57.572Z,93.80
2018-01-29T23:58:25.046Z,93.90
